createdAt,value
2023-07-28T00:08:21.188Z,6.10
2023-07-28T00:14:34.814Z,7.80
2023-07-28T00:17:44.838Z,7.68
2023-07-28T00:20:06.423Z,5.97
2023-07-28T00:22:54.448Z,6.13
2023-07-28T00:25:23.471Z,6.90
2023-07-28T00:27:50.696Z,7.60
2023-07-28T00:30:18.215Z,8.00
2023-07-28T00:32:45.647Z,7.55
2023-07-28T00:35:12.905Z,7.43
2023-07-28T00:37:40.114Z,6.60
2023-07-28T00:40:11.222Z,6.10
2023-07-28T00:42:38.668Z,8.00
2023-07-28T00:45:06.611Z,7.18
2023-07-28T00:47:33.904Z,10.02
2023-07-28T00:50:01.189Z,8.95
2023-07-28T00:52:28.433Z,7.38
2023-07-28T00:54:55.849Z,7.10
2023-07-28T00:57:23.044Z,7.20
2023-07-28T00:59:51.737Z,8.25
2023-07-28T01:02:21.503Z,5.03
2023-07-28T01:04:49.433Z,6.93
2023-07-28T01:08:30.009Z,5.05
2023-07-28T01:11:03.382Z,8.13
2023-07-28T01:14:01.472Z,7.70
2023-07-28T01:17:13.332Z,7.85
2023-07-28T01:20:23.440Z,4.90
2023-07-28T01:23:49.479Z,5.20
2023-07-28T01:26:17.395Z,7.10
2023-07-28T01:28:44.763Z,5.38
2023-07-28T01:31:13.741Z,5.57
2023-07-28T01:33:54.082Z,6.88
2023-07-28T01:36:23.927Z,6.72
2023-07-28T01:38:56.685Z,7.28
2023-07-28T01:41:27.181Z,5.65
2023-07-28T01:44:26.067Z,5.20
2023-07-28T01:47:06.328Z,5.20
2023-07-28T01:49:39.035Z,5.65
2023-07-28T01:52:25.023Z,5.50
2023-07-28T01:55:14.649Z,6.68
2023-07-28T01:58:01.320Z,6.43
2023-07-28T02:01:01.285Z,6.03
2023-07-28T02:03:36.568Z,6.90
2023-07-28T02:06:04.359Z,5.68
2023-07-28T02:08:32.091Z,4.70
2023-07-28T02:11:00.236Z,5.15
2023-07-28T02:13:37.569Z,5.28
2023-07-28T02:16:15.426Z,5.13
2023-07-28T02:18:52.465Z,5.47
2023-07-28T02:21:34.931Z,5.07
2023-07-28T02:24:06.424Z,5.32
2023-07-28T02:26:42.191Z,4.90
2023-07-28T02:29:16.806Z,3.95
2023-07-28T02:32:00.544Z,3.78
2023-07-28T02:34:32.271Z,3.45
2023-07-28T02:37:10.917Z,3.83
2023-07-28T02:39:49.138Z,2.95
2023-07-28T02:42:22.291Z,3.35
2023-07-28T02:45:06.395Z,2.55
2023-07-28T02:47:49.628Z,4.20
2023-07-28T02:50:18.882Z,2.38
2023-07-28T02:52:55.268Z,2.20
2023-07-28T02:58:26.171Z,2.25
2023-07-28T03:00:53.826Z,2.38
2023-07-28T03:03:41.579Z,1.92
2023-07-28T03:06:16.392Z,3.90
2023-07-28T03:08:49.940Z,2.75
2023-07-28T03:11:41.473Z,2.90
2023-07-28T03:14:14.309Z,2.17
2023-07-28T03:16:49.920Z,2.05
2023-07-28T03:19:22.180Z,2.03
2023-07-28T03:21:51.004Z,2.80
2023-07-28T03:24:26.840Z,2.75
2023-07-28T03:26:59.173Z,2.40
2023-07-28T03:29:27.855Z,2.15
2023-07-28T03:31:59.751Z,2.33
2023-07-28T03:34:30.425Z,2.50
2023-07-28T03:37:01.445Z,4.03
2023-07-28T03:39:28.941Z,2.22
2023-07-28T03:42:00.703Z,2.10
2023-07-28T03:44:29.194Z,2.17
2023-07-28T03:49:33.803Z,2.55
2023-07-28T03:52:04.823Z,2.75
2023-07-28T03:54:45.340Z,2.25
2023-07-28T03:57:23.522Z,1.95
2023-07-28T04:00:03.640Z,3.45
2023-07-28T04:02:49.118Z,2.20
2023-07-28T04:05:20.637Z,4.65
2023-07-28T04:08:03.432Z,1.92
2023-07-28T04:10:42.372Z,2.00
2023-07-28T04:13:22.869Z,2.25
2023-07-28T04:15:56.051Z,2.65
2023-07-28T04:18:24.643Z,3.35
2023-07-28T04:20:56.696Z,2.92
2023-07-28T04:23:26.562Z,2.17
2023-07-28T04:28:59.548Z,1.90
2023-07-28T04:31:45.011Z,3.03
2023-07-28T04:34:17.812Z,2.08
2023-07-28T04:37:14.805Z,2.08
2023-07-28T04:39:59.757Z,4.22
2023-07-28T04:42:33.363Z,2.05
2023-07-28T04:45:13.637Z,3.72
2023-07-28T04:47:47.010Z,2.10
2023-07-28T04:50:16.190Z,1.65
2023-07-28T04:53:21.702Z,2.00
2023-07-28T04:56:20.658Z,1.77
2023-07-28T05:01:40.515Z,1.75
2023-07-28T05:04:18.536Z,1.67
2023-07-28T05:07:20.234Z,2.83
2023-07-28T05:10:00.194Z,2.00
2023-07-28T05:12:36.090Z,1.70
2023-07-28T05:15:16.551Z,1.27
2023-07-28T05:17:45.863Z,2.15
2023-07-28T05:20:33.956Z,2.72
2023-07-28T05:23:18.089Z,1.92
2023-07-28T05:25:53.886Z,2.50
2023-07-28T05:28:42.169Z,2.50
2023-07-28T05:31:17.104Z,2.42
2023-07-28T05:33:55.226Z,2.05
2023-07-28T05:36:30.145Z,3.10
2023-07-28T05:39:18.891Z,1.77
2023-07-28T05:42:03.710Z,1.95
2023-07-28T05:45:16.813Z,3.35
2023-07-28T05:47:48.548Z,2.00
2023-07-28T05:50:20.208Z,2.60
2023-07-28T05:52:52.694Z,2.28
2023-07-28T05:55:32.820Z,1.65
2023-07-28T05:58:17.115Z,3.15
2023-07-28T06:01:15.788Z,2.90
2023-07-28T06:04:18.686Z,2.80
2023-07-28T06:07:14.271Z,2.17
2023-07-28T06:09:49.773Z,2.60
2023-07-28T06:12:30.642Z,1.88
2023-07-28T06:15:00.140Z,1.25
2023-07-28T06:21:24.603Z,2.22
2023-07-28T06:29:47.390Z,1.27
2023-07-28T06:32:34.345Z,2.42
2023-07-28T06:35:02.948Z,1.02
2023-07-28T06:37:50.017Z,1.63
2023-07-28T06:40:50.424Z,1.40
2023-07-28T06:43:43.187Z,1.15
2023-07-28T06:46:31.372Z,1.30
2023-07-28T06:49:47.350Z,1.23
2023-07-28T06:52:42.638Z,1.17
2023-07-28T06:59:13.769Z,1.52
2023-07-28T07:06:27.444Z,2.22
2023-07-28T07:09:56.144Z,1.60
2023-07-28T07:17:44.917Z,1.58
2023-07-28T07:20:19.445Z,1.98
2023-07-28T07:27:40.813Z,1.45
2023-07-28T07:30:59.847Z,2.50
2023-07-28T15:49:38.290Z,3.30
2023-07-28T15:52:16.788Z,4.38
2023-07-28T15:54:47.855Z,3.28
2023-07-28T15:57:15.635Z,3.45
2023-07-28T15:59:48.714Z,3.25
2023-07-28T16:02:48.258Z,3.35
2023-07-28T16:05:28.503Z,3.20
2023-07-28T16:09:15.169Z,3.28
2023-07-28T16:11:58.109Z,3.55
2023-07-28T16:14:25.661Z,3.63
2023-07-28T16:16:53.107Z,3.60
2023-07-28T16:22:09.574Z,2.95
2023-07-28T16:24:36.978Z,2.72
2023-07-28T16:27:13.367Z,3.78
2023-07-28T16:33:02.156Z,3.00
2023-07-28T16:35:44.864Z,2.83
2023-07-28T16:38:41.813Z,3.88
2023-07-28T16:41:15.991Z,2.65
2023-07-28T16:43:53.350Z,3.45
2023-07-28T16:46:36.913Z,3.78
2023-07-28T16:49:58.371Z,2.90
2023-07-28T16:52:13.227Z,2.50
2023-07-28T16:54:51.541Z,3.70
2023-07-28T16:57:19.894Z,3.50
2023-07-28T17:03:05.786Z,3.03
2023-07-28T17:08:31.305Z,4.22
2023-07-28T17:11:14.477Z,4.00
2023-07-28T17:13:45.738Z,2.78
2023-07-28T17:16:21.323Z,2.75
2023-07-28T17:18:54.110Z,3.10
2023-07-28T17:21:28.897Z,2.22
2023-07-28T17:24:07.316Z,2.78
2023-07-28T17:26:59.582Z,3.55
2023-07-28T17:29:35.133Z,2.83
2023-07-28T17:32:02.468Z,3.20
2023-07-28T17:34:49.431Z,3.30
2023-07-28T17:37:58.781Z,3.30
2023-07-28T17:40:53.725Z,3.50
2023-07-28T17:43:33.076Z,2.67
2023-07-28T17:46:22.599Z,2.97
2023-07-28T17:48:53.749Z,4.25
2023-07-28T17:57:31.745Z,2.85
2023-07-28T18:00:02.440Z,5.05
2023-07-28T18:02:32.877Z,5.75
2023-07-28T18:05:06.017Z,2.50
2023-07-28T18:07:34.100Z,2.88
2023-07-28T18:10:04.630Z,2.38
2023-07-28T18:12:41.003Z,3.33
2023-07-28T18:15:24.895Z,2.72
2023-07-28T18:18:16.422Z,2.28
2023-07-28T18:20:52.158Z,2.72
2023-07-28T18:23:19.672Z,2.65
2023-07-28T18:25:53.480Z,2.80
2023-07-28T18:28:33.528Z,2.97
2023-07-28T18:31:15.157Z,4.68
2023-07-28T18:33:54.519Z,2.95
2023-07-28T18:36:30.197Z,2.83
2023-07-28T18:39:00.974Z,5.03
2023-07-28T18:41:34.061Z,3.83
2023-07-28T18:44:07.896Z,3.20
2023-07-28T18:47:04.201Z,3.65
2023-07-28T18:49:44.186Z,2.65
2023-07-28T18:55:18.510Z,2.38
2023-07-28T18:58:06.075Z,2.40
2023-07-28T19:00:38.267Z,2.70
2023-07-28T19:03:06.424Z,3.65
2023-07-28T19:06:20.696Z,5.60
2023-07-28T19:08:53.310Z,2.97
2023-07-28T19:11:20.890Z,2.83
2023-07-28T19:13:52.873Z,3.20
2023-07-28T19:16:20.028Z,4.18
2023-07-28T19:18:47.624Z,4.07
2023-07-28T19:21:17.983Z,4.22
2023-07-28T19:23:45.872Z,4.47
2023-07-28T19:26:13.161Z,3.35
2023-07-28T19:28:40.842Z,2.40
2023-07-28T19:31:08.132Z,2.60
2023-07-28T19:33:36.148Z,3.13
2023-07-28T19:36:04.437Z,3.90
2023-07-28T19:38:31.589Z,2.42
2023-07-28T19:40:59.056Z,3.72
2023-07-28T19:43:26.185Z,3.78
2023-07-28T19:45:56.560Z,3.42
2023-07-28T19:48:24.431Z,2.95
2023-07-28T19:50:51.733Z,3.70
2023-07-28T19:53:19.457Z,3.67
2023-07-28T19:55:47.552Z,5.22
2023-07-28T19:58:15.354Z,3.40
2023-07-28T20:00:42.534Z,2.60
2023-07-28T20:03:10.144Z,3.17
2023-07-28T20:05:39.760Z,2.92
2023-07-28T20:08:06.972Z,2.35
2023-07-28T20:10:35.932Z,3.10
2023-07-28T20:13:18.886Z,2.83
2023-07-28T20:15:56.567Z,2.92
2023-07-28T20:18:24.199Z,3.00
2023-07-28T20:20:54.765Z,2.28
2023-07-28T20:23:27.898Z,2.97
2023-07-28T20:26:01.986Z,2.70
2023-07-28T20:28:29.776Z,3.50
2023-07-28T20:31:00.227Z,2.65
2023-07-28T20:33:31.198Z,2.88
2023-07-28T20:35:58.601Z,2.33
2023-07-28T20:38:26.171Z,4.15
2023-07-28T20:40:57.462Z,2.97
2023-07-28T20:43:32.683Z,3.17
2023-07-28T20:46:00.861Z,4.68
2023-07-28T20:48:42.208Z,3.90
2023-07-28T20:51:16.581Z,4.10
2023-07-28T20:53:43.902Z,2.63
2023-07-28T20:56:14.400Z,2.45
2023-07-28T20:58:43.051Z,2.45
2023-07-28T21:01:10.617Z,3.65
2023-07-28T21:03:48.458Z,2.45
2023-07-28T21:06:21.733Z,2.47
2023-07-28T21:08:52.086Z,4.15
2023-07-28T21:11:27.116Z,3.33
2023-07-28T21:13:57.767Z,2.17
2023-07-28T21:16:25.413Z,4.82
2023-07-28T21:18:55.340Z,2.75
2023-07-28T21:21:34.487Z,3.35
2023-07-28T21:24:03.417Z,3.25
2023-07-28T21:29:41.788Z,10.55
2023-07-28T21:32:32.128Z,4.47
2023-07-28T21:35:32.168Z,3.22
2023-07-28T21:38:19.066Z,4.90
2023-07-28T21:43:49.334Z,6.75
2023-07-28T21:46:25.351Z,2.78
2023-07-28T21:48:55.100Z,2.35
2023-07-28T21:53:58.390Z,3.67
2023-07-28T21:56:37.040Z,7.75
2023-07-28T21:59:11.408Z,5.67
2023-07-28T22:01:46.406Z,5.50
2023-07-28T22:04:14.192Z,3.58
2023-07-28T22:06:41.719Z,4.45
2023-07-28T22:09:11.087Z,3.33
2023-07-28T22:11:52.458Z,2.90
2023-07-28T22:14:26.245Z,4.45
2023-07-28T22:16:57.881Z,3.95
2023-07-28T22:19:38.492Z,6.45
2023-07-28T22:22:11.909Z,3.90
2023-07-28T22:24:39.928Z,5.10
2023-07-28T22:27:18.597Z,3.70
2023-07-28T22:29:56.545Z,3.83
2023-07-28T22:36:11.182Z,3.83
2023-07-28T22:39:07.893Z,3.80
2023-07-28T22:42:24.405Z,3.13
2023-07-28T22:44:56.086Z,3.22
2023-07-28T22:47:44.914Z,4.40
2023-07-28T22:50:23.362Z,5.05
2023-07-28T22:55:39.407Z,3.67
2023-07-28T22:58:07.093Z,3.65
2023-07-28T23:00:41.202Z,3.38
2023-07-28T23:03:09.088Z,4.40
2023-07-28T23:05:38.980Z,3.42
2023-07-28T23:08:06.301Z,4.80
2023-07-28T23:10:33.696Z,3.40
2023-07-28T23:13:00.795Z,3.22
2023-07-28T23:15:28.225Z,2.63
2023-07-28T23:17:55.710Z,3.42
2023-07-28T23:20:22.965Z,7.15
2023-07-28T23:22:50.194Z,5.55
2023-07-28T23:25:17.566Z,2.67
2023-07-28T23:27:47.006Z,5.78
2023-07-28T23:30:14.304Z,4.15
2023-07-28T23:32:41.831Z,3.13
2023-07-28T23:35:09.601Z,3.67
2023-07-28T23:37:36.851Z,6.30
2023-07-28T23:40:04.633Z,4.53
2023-07-28T23:42:32.499Z,4.45
2023-07-28T23:44:59.862Z,3.63
2023-07-28T23:47:27.281Z,3.78
2023-07-28T23:49:54.540Z,4.57
2023-07-28T23:52:22.250Z,4.80
2023-07-28T23:54:49.515Z,4.10
2023-07-28T23:57:16.892Z,4.20
2023-07-28T23:59:45.137Z,3.28
